DNMM/LOS METAR and TAF weather

Enter ICAO airport designator
Station Type Date Time Source
DNMM METAR 2019/08/17 10:00 UTC NOAA

DNMM 171000Z VRB02KT 9999 BKN011 FEW020CB 27/23 Q1016 TEMPO -RA


Station Type Date Time Source
DNMM Decoded METAR 2019/08/17 10:00 UTC NOAA

Station name not available
Aug 17, 2019 - 06:00 AM EDT / 2019.08.17 1000 UTC
Wind: Variable at 2 MPH (2 KT):0
Visibility: greater than 7 mile(s):0
Sky conditions: mostly cloudy
Weather: Cumulonimbus clouds observed
Temperature: 80 F (27 C)
Dew Point: 73 F (23 C)
Relative Humidity: 78%
Pressure (altimeter): 30.00 in. Hg (1016 hPa)
ob: DNMM 171000Z VRB02KT 9999 BKN011 FEW020CB 27/23 Q1016 TEMPO -RA
cycle: 10

Station Type Date Time Source
DNMM TAF 2019/08/17 06:21 UTC NOAA

TAF DNMM 170455Z 1706/1812 29006KT 9999 SCT008
BECMG 1708/1710 23012KT BKN010
TEMPO 1709/1715 BKN013 FEW020CB PROB30 1711/1716 5000 -RA BKN009 FEW019CB
BECMG 1717/1719 VRB02KT SCT010

Example: see airport list